Track Калинина Вероника

Time Latitude Longitude Accuracy (66% radius in meters) Altitude (meters) Speed (km/hour) Bearing (degrees) Battery (%) GPS flag
10:49:52 51.810978 39.391196 4 113 0 270.95919799805 71 1 delete
10:49:39 51.811000 39.391189 6 110 0 6.5910654067993 71 1 delete
10:49:36 51.811002 39.391177 8 110 0 6.5910654067993 71 1 delete
10:49:27 51.810989 39.391166 6 119 0 130.48905944824 71 1 delete
10:49:14 51.810988 39.391163 6 118 0 127.86477661133 71 1 delete
10:49:02 51.810973 39.391131 6 119 0 151.06871032715 71 1 delete
10:48:50 51.810958 39.391133 6 126 0 151.06871032715 71 1 delete
10:48:38 51.810967 39.391127 6 128 0 126.3671875 71 1 delete
10:48:37 51.810968 39.391125 6 128 0 126.3671875 71 1 delete
10:48:26 51.810998 39.391067 8 127 0 151.04643249512 71 1 delete
10:48:14 51.810996 39.391113 6 118 0 151.04643249512 71 1 delete
10:48:02 51.810985 39.391128 12 117 0 151.07800292969 71 1 delete
10:47:50 51.811003 39.391117 6 120 0.3979663848877 312.92129516602 71 1 delete
10:47:37 51.810968 39.391119 8 111 0 299.84854125977 71 1 delete
10:47:22 51.810960 39.391163 12 117 0 24.114854812622 71 1 delete
10:47:09 51.810958 39.391175 8 116 0 24.114854812622 71 1 delete
10:46:55 51.810989 39.391138 8 114 0.3379074037075 123.96277618408 71 1 delete
10:46:47 51.811002 39.391108 8 111 0.52827674150467 138.26864624023 71 1 delete
10:46:34 51.810984 39.391086 12 112 0 298.14547729492 71 1 delete
10:46:22 51.811014 39.391061 8 115 0 314.58346557617 71 1 delete
10:46:08 51.811015 39.391048 12 115 0 312.58740234375 71 1 delete
10:45:56 51.811022 39.391037 8 112 0 312.58740234375 71 1 delete
10:45:42 51.811002 39.391061 12 109 0 308.88180541992 71 1 delete
10:45:26 51.811010 39.391058 6 113 0 335.892578125 71 1 delete
10:45:11 51.811015 39.391055 16 113 0 322.32873535156 71 1 delete
10:44:59 51.811015 39.391043 12 111 0 308.70626831055 71 1 delete
10:44:47 51.811033 39.391022 6 112 0 316.86196899414 71 1 delete
10:44:37 51.811009 39.391067 12 111 0 309.65435791016 71 1 delete
10:44:34 51.811000 39.391084 6 112 0 309.65435791016 71 1 delete
10:44:26 51.810976 39.391126 12 116 0.31070792675018 328.88735961914 71 1 delete
10:44:22 51.810959 39.391142 8 117 0.074115172028542 344.80688476562 71 1 delete
10:44:07 51.810949 39.391164 8 117 0 122.65765380859 71 1 delete
10:43:53 51.810957 39.391155 8 115 0.1145541742444 351.24954223633 71 1 delete
10:43:33 51.810939 39.391171 8 115 0.094701901078224 122.96198272705 71 1 delete
10:43:24 51.810963 39.391147 8 116 0 106.86463928223 71 1 delete
10:43:14 51.810973 39.391115 8 118 0.086631089448929 144.23539733887 71 1 delete
10:43:10 51.810982 39.391102 6 115 0.087396383285522 126.23714447021 71 1 delete
10:42:57 51.810980 39.391095 6 114 0 222.84997558594 71 1 delete
10:42:44 51.810991 39.391079 8 114 0 151.26177978516 71 1 delete
10:42:29 51.810998 39.391051 16 110 0.31001138687134 294.52005004883 71 1 delete
10:42:15 51.810972 39.391079 6 109 0 123.68017578125 71 1 delete
10:41:17 51.811006 39.391065 24 113 0.050145842134953 290.66854858398 71 1 delete
10:40:58 51.811016 39.391056 8 114 0 137.93000793457 71 1 delete
10:40:53 51.811008 39.391070 12 112 0 137.93000793457 71 1 delete
10:40:44 51.810996 39.391082 6 115 0 280.00930786133 71 1 delete
10:40:24 51.810989 39.391099 6 118 0.044907756149769 122.40809631348 71 1 delete
10:40:07 51.810963 39.391138 16 121 0 94.653274536133 71 1 delete
10:39:53 51.810965 39.391132 8 119 0 138.45753479004 71 1 delete
10:37:52 51.810972 39.391077 6 114 0 148.87008666992 71 1 delete
10:37:39 51.810956 39.391080 12 119 0.089039266109467 14.910561561584 71 1 delete